Airfield :
LOGIN :

Register | Disclaimer

   EN    FR    IT 

 










Legend :    VFR   Marginal VFR   IFR   Intensive IFR   Very Intensive IFR
Visi :
Ceiling :
>= 8 km
>= 3000ft
5 to 8 km
1000 to 3000 ft
1500m to 5 km
500 to 1000 ft
800 to 1500m
200 to 500 ft
< 800m
< 200 ft
Symbols :   Thunderstorms  Fog  Heavy snow  Heavy precipitations  Wind > 20 kt
SIGMETs :     Misc.  Thunderstorms  Icing  Turbulence  Mountain Waves  Volcanic Ashes







- Airport Elevation : 616 ft
- IATA code : PUF
- Download approach charts


LFBP - Pau

CURRENT METAR :
  • 152230Z AUTO 15003KT CAVOK 19/15 Q1017 NOSIG

EXPIRED METARs :
  • 152200Z AUTO 09003KT CAVOK 20/15 Q1017 NOSIG
  • 152130Z AUTO VRB03KT CAVOK 20/15 Q1017 NOSIG
  • 152100Z AUTO 05003KT CAVOK 21/15 Q1017 NOSIG
  • 152030Z AUTO 07003KT CAVOK 21/15 Q1017 NOSIG
  • 152000Z AUTO 07003KT CAVOK 22/15 Q1017 NOSIG

TAF TAF LFBP
Valid from the 15 at 18:00 until the 16 at 18:00 UTC


151700Z 1518/1618 07010KT CAVOK
BECMG 1520/1522 VRB03KT
PROB30
TEMPO 1605/1608 0500 BCFG
BECMG 1609/1611 30010KT
BECMG 1616/1618 BKN030
No reported NOTAMs for that airfield.



MET'MAP, your aeronautical weather chart ! - Copyright ORBIFLY December 2007 - Disclaimer

ORBIFLY MET'MAP TEAM :

Programming & Development : Alexandra Zaïnal
Concept & Development : Baudouin d'Aumeries
Co-Development & Prog : Marc-Olivier Méhu
Technical & hardware support : Manuel Goepfert

Contact : metmap@orbifly.com




SOURCES & CREDITS :

   NOAA